Seiyu Maru — JD3189 — position and weather

sailwx.info

Track history (hours):
 
Tides and Currents Weather Stations Pressure Air Temp Water Temp Dewpoint Dewpoint Depression Visibility Wind Speed Wind Dir Waves Ship Positions

Seiyu Maru

Last reported at 2015-May-28 19:30 UTC. Time now 2015-May-29 22:27 UTC.
Position N 35°01' E 139°27'.

Length 75 m; draft 4.5 m.

Type: Cargo ship. MMSI: 431002433.

Date/timePositionNaut miles runAvg speedWind from/ knotsBaromVisibWave heightAir tempDewpointWater temp
2015-May-28 19:30N 35°01' E 139°27'1111.9
2015-May-28 18:33N 35°06' E 139°39'1111.1
2015-May-28 17:33N 35°15' E 139°46'1010.2
2015-May-28 16:33N 35°25' E 139°44'7 6.5
2015-May-28 15:33N 35°22' E 139°51'0 0.0
2015-May-28 14:33N 35°22' E 139°51'0 0.0
2015-May-28 13:33N 35°22' E 139°51'0 0.0
2015-May-28 12:34N 35°22' E 139°51'0 0.0
2015-May-28 11:29N 35°22' E 139°51'0 0.0
2015-May-28 10:29N 35°22' E 139°51'0 0.0
2015-May-28 09:26N 35°22' E 139°51'0 0.0
2015-May-28 08:32N 35°22' E 139°51'0 0.0
2015-May-28 07:32N 35°22' E 139°51'0 0.0
2015-May-28 06:32N 35°22' E 139°51'0 0.0
2015-May-28 05:32N 35°21' E 139°51'2 2.2
2015-May-28 04:33N 35°22' E 139°54'0 0.0
2015-May-28 03:33N 35°22' E 139°54'0 0.0
2015-May-28 02:33N 35°22' E 139°54'0 0.0
2015-May-28 01:33N 35°22' E 139°54'0 0.0
2015-May-28 00:33N 35°22' E 139°54'0 0.0
2015-May-27 23:33N 35°22' E 139°54'0 0.0
2015-May-27 22:33N 35°22' E 139°54'0 0.0
2015-May-27 21:33N 35°22' E 139°54'0 0.0
2015-May-27 20:33N 35°22' E 139°54'0 0.0
2015-May-27 19:33N 35°22' E 139°54'0 0.0
2015-May-27 18:33N 35°22' E 139°54'0 0.0
2015-May-27 17:33N 35°22' E 139°54'3 3.2
2015-May-27 16:34N 35°23' E 139°50'8 7.7
2015-May-27 15:33N 35°16' E 139°46'1111.5
2015-May-27 14:33N 35°05' E 139°45'1412.4
2015-May-27 13:27N 34°56' E 139°32'  
2015-May-22 11:20N 34°36' E 134°54'911.1
2015-May-22 10:33N 34°36' E 135°04'1110.8
2015-May-22 09:33N 34°38' E 135°17'7 7.0
2015-May-22 08:33N 34°42' E 135°24'0 0.0
2015-May-22 07:33N 34°42' E 135°24'0 0.0
2015-May-22 06:33N 34°42' E 135°24'0 0.0
2015-May-22 05:33N 34°42' E 135°24'0 0.1
2015-May-22 04:33N 34°42' E 135°24'0 0.0
2015-May-22 03:33N 34°42' E 135°24'0 0.0
2015-May-22 02:33N 34°42' E 135°24'0 0.0
2015-May-22 01:33N 34°42' E 135°24'0 0.0
2015-May-22 00:33N 34°42' E 135°24'0 0.1
2015-May-21 23:32N 34°42' E 135°24'0 0.0
2015-May-21 22:33N 34°42' E 135°24'0 0.0
2015-May-21 21:33N 34°42' E 135°24'0 0.0
2015-May-21 20:33N 34°42' E 135°24'0 0.0
2015-May-21 19:33N 34°42' E 135°24'0 0.0
2015-May-21 18:33N 34°42' E 135°24'0 0.0
2015-May-21 17:33N 34°42' E 135°24'0 0.0
2015-May-21 16:33N 34°42' E 135°24'0 0.0
2015-May-21 15:33N 34°42' E 135°24'0 0.0
2015-May-21 14:24N 34°42' E 135°24'0 0.0
2015-May-21 13:05N 34°42' E 135°24'0 0.0
2015-May-21 12:33N 34°42' E 135°24'0 0.0
2015-May-21 10:15N 34°42' E 135°24'0 0.0
2015-May-21 09:33N 34°42' E 135°24'0 0.0
2015-May-21 08:33N 34°42' E 135°24'0 0.0
2015-May-21 07:32N 34°42' E 135°24'0 0.0
2015-May-21 06:33N 34°42' E 135°24'0 0.0
2015-May-21 05:16N 34°42' E 135°24'0 0.0
2015-May-21 04:32N 34°42' E 135°24'0 0.0
2015-May-21 03:33N 34°42' E 135°24'0 0.1
2015-May-21 02:33N 34°42' E 135°24'10 9.7
2015-May-21 01:33N 34°34' E 135°16'1111.1
2015-May-21 00:31N 34°25' E 135°08'1310.7
2015-May-20 23:16N 34°14' E 134°59'910.7
2015-May-20 22:28N 34°05' E 135°00'235 9.0
2015-May-19 20:33N 34°58' E 139°37'10 9.2
2015-May-19 19:29N 35°01' E 139°49'1 0.1
2015-May-19 13:29N 35°01' E 139°50'0 0.0
2015-May-19 12:29N 35°01' E 139°50'0 0.0
2015-May-19 10:23N 35°01' E 139°50'0 0.0
2015-May-19 09:17N 35°01' E 139°50'0 0.0
2015-May-19 07:17N 35°01' E 139°50'0 0.0
2015-May-19 05:32N 35°01' E 139°50'6 6.3
2015-May-19 04:32N 34°56' E 139°44'11 8.9
2015-May-19 03:17N 34°53' E 139°57'10 9.4
2015-May-19 02:14N 34°60' E 140°07'25 8.2
2015-May-18 23:14N 35°13' E 140°32'  
Track history (hours):
 
Tides and Currents Weather Stations Pressure Air Temp Water Temp Dewpoint Dewpoint Depression Visibility Wind Speed Wind Dir Waves Ship Positions

Seiyu Maru

Last reported at 2015-May-28 19:30 UTC. Time now 2015-May-29 22:27 UTC.
Position N 35°01' E 139°27'.

Length 75 m; draft 4.5 m.

Type: Cargo ship. MMSI: 431002433.

Date/timePositionNaut miles runAvg speedWind from/ knotsBaromVisibWave heightAir tempDewpointWater temp
2015-May-28 19:30N 35°01' E 139°27'1111.9
2015-May-28 18:33N 35°06' E 139°39'1111.1
2015-May-28 17:33N 35°15' E 139°46'1010.2
2015-May-28 16:33N 35°25' E 139°44'7 6.5
2015-May-28 15:33N 35°22' E 139°51'0 0.0
2015-May-28 14:33N 35°22' E 139°51'0 0.0
2015-May-28 13:33N 35°22' E 139°51'0 0.0
2015-May-28 12:34N 35°22' E 139°51'0 0.0
2015-May-28 11:29N 35°22' E 139°51'0 0.0
2015-May-28 10:29N 35°22' E 139°51'0 0.0
2015-May-28 09:26N 35°22' E 139°51'0 0.0
2015-May-28 08:32N 35°22' E 139°51'0 0.0
2015-May-28 07:32N 35°22' E 139°51'0 0.0
2015-May-28 06:32N 35°22' E 139°51'0 0.0
2015-May-28 05:32N 35°21' E 139°51'2 2.2
2015-May-28 04:33N 35°22' E 139°54'0 0.0
2015-May-28 03:33N 35°22' E 139°54'0 0.0
2015-May-28 02:33N 35°22' E 139°54'0 0.0
2015-May-28 01:33N 35°22' E 139°54'0 0.0
2015-May-28 00:33N 35°22' E 139°54'0 0.0
2015-May-27 23:33N 35°22' E 139°54'0 0.0
2015-May-27 22:33N 35°22' E 139°54'0 0.0
2015-May-27 21:33N 35°22' E 139°54'0 0.0
2015-May-27 20:33N 35°22' E 139°54'0 0.0
2015-May-27 19:33N 35°22' E 139°54'0 0.0
2015-May-27 18:33N 35°22' E 139°54'0 0.0
2015-May-27 17:33N 35°22' E 139°54'3 3.2
2015-May-27 16:34N 35°23' E 139°50'8 7.7
2015-May-27 15:33N 35°16' E 139°46'1111.5
2015-May-27 14:33N 35°05' E 139°45'1412.4
2015-May-27 13:27N 34°56' E 139°32'  
2015-May-22 11:20N 34°36' E 134°54'911.1
2015-May-22 10:33N 34°36' E 135°04'1110.8
2015-May-22 09:33N 34°38' E 135°17'7 7.0
2015-May-22 08:33N 34°42' E 135°24'0 0.0
2015-May-22 07:33N 34°42' E 135°24'0 0.0
2015-May-22 06:33N 34°42' E 135°24'0 0.0
2015-May-22 05:33N 34°42' E 135°24'0 0.1
2015-May-22 04:33N 34°42' E 135°24'0 0.0
2015-May-22 03:33N 34°42' E 135°24'0 0.0
2015-May-22 02:33N 34°42' E 135°24'0 0.0
2015-May-22 01:33N 34°42' E 135°24'0 0.0
2015-May-22 00:33N 34°42' E 135°24'0 0.1
2015-May-21 23:32N 34°42' E 135°24'0 0.0
2015-May-21 22:33N 34°42' E 135°24'0 0.0
2015-May-21 21:33N 34°42' E 135°24'0 0.0
2015-May-21 20:33N 34°42' E 135°24'0 0.0
2015-May-21 19:33N 34°42' E 135°24'0 0.0
2015-May-21 18:33N 34°42' E 135°24'0 0.0
2015-May-21 17:33N 34°42' E 135°24'0 0.0
2015-May-21 16:33N 34°42' E 135°24'0 0.0
2015-May-21 15:33N 34°42' E 135°24'0 0.0
2015-May-21 14:24N 34°42' E 135°24'0 0.0
2015-May-21 13:05N 34°42' E 135°24'0 0.0
2015-May-21 12:33N 34°42' E 135°24'0 0.0
2015-May-21 10:15N 34°42' E 135°24'0 0.0
2015-May-21 09:33N 34°42' E 135°24'0 0.0
2015-May-21 08:33N 34°42' E 135°24'0 0.0
2015-May-21 07:32N 34°42' E 135°24'0 0.0
2015-May-21 06:33N 34°42' E 135°24'0 0.0
2015-May-21 05:16N 34°42' E 135°24'0 0.0
2015-May-21 04:32N 34°42' E 135°24'0 0.0
2015-May-21 03:33N 34°42' E 135°24'0 0.1
2015-May-21 02:33N 34°42' E 135°24'10 9.7
2015-May-21 01:33N 34°34' E 135°16'1111.1
2015-May-21 00:31N 34°25' E 135°08'1310.7
2015-May-20 23:16N 34°14' E 134°59'910.7
2015-May-20 22:28N 34°05' E 135°00'235 9.0
2015-May-19 20:33N 34°58' E 139°37'10 9.2
2015-May-19 19:29N 35°01' E 139°49'1 0.1
2015-May-19 13:29N 35°01' E 139°50'0 0.0
2015-May-19 12:29N 35°01' E 139°50'0 0.0
2015-May-19 10:23N 35°01' E 139°50'0 0.0
2015-May-19 09:17N 35°01' E 139°50'0 0.0
2015-May-19 07:17N 35°01' E 139°50'0 0.0
2015-May-19 05:32N 35°01' E 139°50'6 6.3
2015-May-19 04:32N 34°56' E 139°44'11 8.9
2015-May-19 03:17N 34°53' E 139°57'10 9.4
2015-May-19 02:14N 34°60' E 140°07'25 8.2
2015-May-18 23:14N 35°13' E 140°32'  

Dump ship's entire track history